Time;durP1;ratioP1;P1;durP2;ratioP2;P2;SDS_P1;SDS_P2;PMS_P1;PMS_P2;Temp;Humidity;BMP_temperature;BMP_pressure;BME280_temperature;BME280_humidity;BME280_pressure;Samples;Min_cycle;Max_cycle;Signal;HPM_P1;HPM_P2
2022/06/17 00:01:11;;;;;;;12.95;7.43;;;21.20;72.40;;;;;;5072488;28;20023;-67
2022/06/17 00:03:37;;;;;;;11.88;7.10;;;21.20;72.50;;;;;;5071377;28;20499;-67
2022/06/17 00:06:04;;;;;;;13.57;8.30;;;21.10;72.50;;;;;;5070082;28;20043;-67
2022/06/17 00:08:42;;;;;;;10.60;7.18;;;21.10;72.50;;;;;;5072197;28;20082;-67
2022/06/17 00:11:17;;;;;;;11.48;7.55;;;21.10;72.60;;;;;;5071957;28;20427;-67
2022/06/17 00:13:43;;;;;;;11.88;7.45;;;21.00;72.70;;;;;;5058452;28;20055;-67
2022/06/17 00:16:14;;;;;;;13.90;7.95;;;21.00;72.80;;;;;;5063041;28;20036;-67
2022/06/17 00:18:40;;;;;;;14.07;8.68;;;21.00;72.90;;;;;;5063842;28;20063;-67
2022/06/17 00:21:06;;;;;;;10.38;6.20;;;20.90;73.10;;;;;;5062654;28;20055;-67
2022/06/17 00:23:32;;;;;;;13.88;7.50;;;20.90;73.30;;;;;;5070909;28;20094;-67
2022/06/17 00:25:59;;;;;;;10.93;6.38;;;20.90;73.90;;;;;;5059828;28;20039;-67
2022/06/17 00:28:24;;;;;;;11.57;5.70;;;20.90;73.30;;;;;;5052724;28;20472;-67
2022/06/17 00:30:51;;;;;;;10.77;5.47;;;20.80;73.40;;;;;;5054786;28;20035;-67
2022/06/17 00:33:18;;;;;;;8.57;5.13;;;20.80;73.50;;;;;;5071242;28;20028;-67
2022/06/17 00:35:55;;;;;;;7.28;5.78;;;20.80;73.60;;;;;;5070235;28;20035;-67
2022/06/17 00:38:25;;;;;;;12.00;5.90;;;20.70;73.70;;;;;;5072082;28;20024;-67
2022/06/17 00:40:52;;;;;;;9.35;5.78;;;20.70;73.90;;;;;;5068658;28;20021;-68
2022/06/17 00:43:31;;;;;;;9.35;6.25;;;20.70;74.00;;;;;;5061409;28;20131;-67
2022/06/17 00:46:19;;;;;;;9.13;5.93;;;20.70;74.20;;;;;;5068647;28;20032;-67
2022/06/17 00:49:17;;;;;;;8.85;5.93;;;20.60;74.20;;;;;;5058586;28;20071;-67
2022/06/17 00:51:58;;;;;;;11.98;8.13;;;20.60;74.10;;;;;;5053077;28;20045;-68
2022/06/17 00:54:32;;;;;;;12.60;7.40;;;20.60;74.20;;;;;;5058774;28;20016;-67
2022/06/17 00:56:58;;;;;;;24.02;9.10;;;20.50;74.10;;;;;;5057491;28;20021;-67
2022/06/17 00:59:25;;;;;;;15.00;9.63;;;20.50;74.30;;;;;;5058573;28;20028;-69
2022/06/17 01:02:06;;;;;;;14.20;9.48;;;20.40;74.40;;;;;;5050118;28;20029;-69
2022/06/17 01:04:43;;;;;;;12.85;8.23;;;20.40;74.60;;;;;;5063269;28;20044;-69
2022/06/17 01:07:23;;;;;;;9.48;5.68;;;20.40;74.80;;;;;;5064932;28;20425;-69
2022/06/17 01:09:58;;;;;;;7.13;4.95;;;20.40;74.70;;;;;;5058816;28;20040;-69
2022/06/17 01:12:32;;;;;;;10.38;6.85;;;20.30;74.50;;;;;;5066410;28;20086;-69
2022/06/17 01:14:59;;;;;;;15.80;7.82;;;20.30;74.60;;;;;;5061569;28;20036;-68
2022/06/17 01:17:26;;;;;;;16.48;9.02;;;20.30;74.80;;;;;;5071307;28;20017;-69
2022/06/17 01:20:00;;;;;;;16.80;9.48;;;20.30;75.10;;;;;;5056451;28;20052;-67
2022/06/17 01:22:47;;;;;;;18.75;9.43;;;20.20;75.30;;;;;;5057810;28;20026;-67
2022/06/17 01:25:33;;;;;;;15.70;10.05;;;20.20;75.50;;;;;;5055059;28;20060;-69
2022/06/17 01:28:04;;;;;;;15.63;8.10;;;20.20;75.70;;;;;;5066366;28;20027;-68
2022/06/17 01:30:45;;;;;;;13.77;9.27;;;20.10;75.90;;;;;;5069475;28;20036;-69
2022/06/17 01:33:23;;;;;;;15.68;9.63;;;20.10;76.20;;;;;;5062903;28;20066;-66
2022/06/17 01:35:54;;;;;;;27.17;10.02;;;20.10;76.60;;;;;;5061466;28;20036;-66
2022/06/17 01:38:21;;;;;;;15.57;9.80;;;20.00;76.80;;;;;;5070931;28;20082;-67
2022/06/17 01:40:47;;;;;;;20.25;10.93;;;20.00;77.00;;;;;;5061044;28;20028;-69
2022/06/17 01:43:17;;;;;;;22.55;11.25;;;20.00;77.40;;;;;;5056238;28;20025;-69
2022/06/17 01:46:10;;;;;;;20.15;11.25;;;20.00;77.60;;;;;;5065556;28;20057;-69
2022/06/17 01:48:39;;;;;;;18.42;10.90;;;19.90;77.60;;;;;;5054786;28;20035;-69
2022/06/17 01:51:07;;;;;;;18.17;11.82;;;19.90;77.90;;;;;;5072617;28;20090;-67
2022/06/17 01:53:36;;;;;;;17.83;11.65;;;20.00;78.10;;;;;;5071955;28;20119;-66
2022/06/17 01:56:14;;;;;;;23.77;12.02;;;19.90;78.30;;;;;;5068622;28;20091;-70
2022/06/17 01:58:54;;;;;;;20.95;12.00;;;19.90;78.50;;;;;;5068017;28;20128;-70
2022/06/17 02:01:22;;;;;;;19.88;12.25;;;19.90;78.70;;;;;;5063776;28;20041;-69
2022/06/17 02:03:54;;;;;;;17.30;11.35;;;19.80;78.80;;;;;;5068334;28;20435;-69
2022/06/17 02:06:46;;;;;;;18.60;12.98;;;19.80;79.20;;;;;;5062373;28;20412;-69
2022/06/17 02:09:13;;;;;;;20.70;11.43;;;19.80;79.20;;;;;;5045377;28;20053;-69
2022/06/17 02:11:39;;;;;;;19.63;11.80;;;19.80;79.30;;;;;;5055619;28;20025;-69
2022/06/17 02:14:14;;;;;;;19.48;11.43;;;19.80;79.20;;;;;;5064075;28;20052;-69
2022/06/17 02:17:01;;;;;;;14.25;10.63;;;19.70;79.70;;;;;;5049111;28;20090;-66
2022/06/17 02:19:40;;;;;;;24.60;12.10;;;19.70;79.10;;;;;;5061301;28;20032;-66
2022/06/17 02:22:19;;;;;;;18.67;11.68;;;19.70;79.00;;;;;;5057786;28;20041;-66
2022/06/17 02:24:50;;;;;;;18.58;10.93;;;19.70;79.00;;;;;;5067051;28;20103;-69
2022/06/17 02:27:19;;;;;;;22.77;12.15;;;19.70;79.10;;;;;;5059631;28;20028;-69
2022/06/17 02:29:47;;;;;;;18.38;12.02;;;19.70;79.20;;;;;;5071987;28;20040;-69
2022/06/17 02:32:13;;;;;;;16.95;11.48;;;19.60;79.30;;;;;;5068292;28;20021;-69
2022/06/17 02:34:47;;;;;;;16.33;11.80;;;19.60;79.40;;;;;;5055145;28;20037;-69
2022/06/17 02:37:16;;;;;;;23.25;13.10;;;19.60;79.60;;;;;;5059722;28;20032;-69
2022/06/17 02:39:47;;;;;;;18.88;11.18;;;19.60;80.30;;;;;;5065269;28;20036;-69
2022/06/17 02:42:24;;;;;;;19.08;11.50;;;19.50;79.70;;;;;;5062295;28;20387;-68
2022/06/17 02:44:57;;;;;;;18.48;11.40;;;19.50;79.80;;;;;;5071574;28;20085;-68
2022/06/17 02:47:24;;;;;;;18.75;11.55;;;19.50;79.80;;;;;;5072128;28;20016;-69
2022/06/17 02:49:52;;;;;;;18.20;11.27;;;19.50;79.80;;;;;;5071328;28;20162;-68
2022/06/17 02:52:26;;;;;;;16.95;11.13;;;19.50;79.90;;;;;;5061968;28;20678;-68
2022/06/17 02:55:00;;;;;;;24.65;12.80;;;19.40;79.80;;;;;;5056397;28;20098;-68
2022/06/17 02:57:31;;;;;;;25.85;12.05;;;19.50;80.00;;;;;;5070871;28;20029;-68
2022/06/17 03:00:14;;;;;;;17.80;11.70;;;19.50;80.10;;;;;;5052980;28;20025;-68
2022/06/17 03:02:49;;;;;;;16.50;11.35;;;19.40;80.10;;;;;;5056337;28;20044;-68
2022/06/17 03:05:22;;;;;;;20.63;12.05;;;19.40;80.20;;;;;;5061393;28;20033;-69
2022/06/17 03:07:49;;;;;;;20.77;11.63;;;19.30;80.40;;;;;;5069999;28;20020;-68
2022/06/17 03:10:36;;;;;;;15.18;10.38;;;19.30;80.50;;;;;;5072989;28;20059;-68
2022/06/17 03:13:13;;;;;;;17.35;10.50;;;19.40;80.60;;;;;;5059876;28;20055;-69
2022/06/17 03:15:46;;;;;;;18.65;11.63;;;19.30;80.50;;;;;;5056921;28;20055;-68
2022/06/17 03:18:12;;;;;;;15.68;10.50;;;19.30;80.50;;;;;;5071507;28;20435;-68
2022/06/17 03:20:40;;;;;;;18.40;11.05;;;19.30;80.60;;;;;;5072620;28;20028;-68
2022/06/17 03:23:29;;;;;;;18.42;11.10;;;19.20;80.70;;;;;;5072637;28;20028;-68
2022/06/17 03:26:03;;;;;;;19.15;10.95;;;19.20;80.80;;;;;;5059904;28;20032;-69
2022/06/17 03:28:51;;;;;;;16.63;10.07;;;19.20;80.90;;;;;;5062227;28;20025;-69
2022/06/17 03:31:33;;;;;;;16.00;10.48;;;19.20;80.80;;;;;;5071892;28;20034;-68
2022/06/17 03:34:05;;;;;;;15.25;10.25;;;19.20;80.80;;;;;;5065269;28;20021;-68
2022/06/17 03:36:40;;;;;;;13.88;10.13;;;19.10;80.80;;;;;;5058749;28;20039;-66
2022/06/17 03:39:32;;;;;;;20.63;10.77;;;19.10;80.80;;;;;;5054833;28;20025;-69
2022/06/17 03:42:15;;;;;;;18.35;10.15;;;19.20;81.00;;;;;;5067386;28;20016;-68
2022/06/17 03:45:03;;;;;;;17.75;8.98;;;19.10;81.10;;;;;;5067849;28;20032;-69
2022/06/17 03:47:51;;;;;;;17.15;10.38;;;19.10;81.10;;;;;;5070799;28;20495;-68
2022/06/17 03:50:31;;;;;;;18.80;10.45;;;19.10;81.00;;;;;;5069855;28;20040;-67
2022/06/17 03:53:03;;;;;;;21.90;11.43;;;19.10;81.20;;;;;;5056703;28;20021;-68
2022/06/17 03:55:30;;;;;;;21.75;11.18;;;19.10;81.20;;;;;;5065854;28;20025;-67
2022/06/17 03:58:01;;;;;;;24.00;10.60;;;19.10;81.20;;;;;;5065014;28;20035;-67
2022/06/17 04:00:49;;;;;;;17.13;10.48;;;19.10;81.20;;;;;;5062598;28;20074;-67
2022/06/17 04:03:22;;;;;;;15.38;10.48;;;19.10;81.80;;;;;;5068305;28;20128;-68
2022/06/17 04:05:54;;;;;;;20.23;10.50;;;19.10;81.40;;;;;;5056592;28;20112;-68
2022/06/17 04:08:20;;;;;;;21.98;9.98;;;19.10;81.60;;;;;;5059582;28;20024;-68
2022/06/17 04:10:46;;;;;;;15.90;9.40;;;19.10;81.40;;;;;;5064796;28;20074;-68
2022/06/17 04:13:21;;;;;;;18.67;9.80;;;19.10;81.40;;;;;;5062773;28;20028;-67
2022/06/17 04:16:03;;;;;;;21.48;10.02;;;19.10;81.50;;;;;;5069974;28;20036;-68
2022/06/17 04:18:34;;;;;;;14.98;9.88;;;19.10;81.60;;;;;;5066225;28;20029;-68
2022/06/17 04:21:04;;;;;;;17.30;8.98;;;19.10;82.30;;;;;;5070045;28;20578;-68
2022/06/17 04:23:33;;;;;;;18.38;8.48;;;19.10;81.80;;;;;;5057390;28;20128;-68
2022/06/17 04:26:30;;;;;;;15.05;9.15;;;19.10;81.90;;;;;;5041561;28;20445;-68
2022/06/17 04:29:01;;;;;;;16.58;8.60;;;19.10;81.90;;;;;;5058532;28;20029;-68
2022/06/17 04:31:32;;;;;;;13.35;9.15;;;19.10;82.10;;;;;;5058779;28;20125;-68
2022/06/17 04:34:19;;;;;;;16.05;9.18;;;19.10;82.20;;;;;;5057570;28;20120;-67
2022/06/17 04:37:02;;;;;;;14.73;8.33;;;19.10;82.20;;;;;;5062053;28;20383;-68
2022/06/17 04:39:55;;;;;;;17.33;8.80;;;19.10;82.20;;;;;;5083464;28;20028;-68
2022/06/17 04:42:42;;;;;;;15.48;8.75;;;19.20;82.20;;;;;;5067416;28;20495;-68
2022/06/17 04:45:24;;;;;;;16.15;7.80;;;19.20;82.20;;;;;;5066409;28;20024;-68
2022/06/17 04:47:51;;;;;;;15.88;8.57;;;19.20;82.20;;;;;;5060976;28;20028;-68
2022/06/17 04:50:26;;;;;;;13.95;8.77;;;19.20;82.30;;;;;;5063177;28;20060;-68
2022/06/17 04:52:55;;;;;;;12.27;8.75;;;19.20;82.50;;;;;;5065124;28;20123;-68
2022/06/17 04:55:47;;;;;;;24.83;8.98;;;19.20;82.60;;;;;;5065132;28;20107;-68
2022/06/17 04:58:19;;;;;;;12.85;7.60;;;19.20;82.60;;;;;;5066545;28;20354;-68
2022/06/17 05:00:55;;;;;;;13.15;8.25;;;19.20;82.60;;;;;;5059248;28;20021;-68
2022/06/17 05:03:44;;;;;;;15.52;7.72;;;19.30;83.30;;;;;;5051892;28;20048;-68
2022/06/17 05:06:23;;;;;;;16.13;8.13;;;19.30;82.60;;;;;;5065468;28;20039;-68
2022/06/17 05:09:05;;;;;;;23.33;8.10;;;19.30;82.70;;;;;;5072104;28;20066;-68
2022/06/17 05:11:34;;;;;;;13.65;7.15;;;19.30;82.80;;;;;;5067839;28;20109;-68
2022/06/17 05:14:21;;;;;;;12.00;7.80;;;19.30;82.60;;;;;;5073497;28;20020;-68
2022/06/17 05:16:48;;;;;;;12.82;7.75;;;19.40;82.70;;;;;;5060255;28;20395;-66
2022/06/17 05:19:15;;;;;;;13.82;7.22;;;19.30;82.50;;;;;;5072917;28;20031;-69
2022/06/17 05:21:41;;;;;;;19.55;7.97;;;19.40;82.60;;;;;;5071029;28;20024;-66
2022/06/17 05:24:14;;;;;;;15.57;7.63;;;19.30;82.60;;;;;;5053475;28;20057;-66
2022/06/17 05:26:41;;;;;;;12.20;6.53;;;19.40;82.70;;;;;;5068619;28;20085;-67
2022/06/17 05:29:09;;;;;;;12.32;6.20;;;19.40;82.50;;;;;;5069039;28;20507;-67
2022/06/17 05:31:38;;;;;;;11.98;6.40;;;19.40;82.50;;;;;;5063377;28;20127;-67
2022/06/17 05:34:06;;;;;;;16.05;6.65;;;19.40;82.10;;;;;;5061495;28;20036;-67
2022/06/17 05:36:32;;;;;;;17.30;7.00;;;19.40;82.30;;;;;;5063654;28;20086;-67
2022/06/17 05:38:58;;;;;;;18.02;7.15;;;19.40;82.60;;;;;;5060169;28;20060;-67
2022/06/17 05:41:25;;;;;;;18.23;6.55;;;19.50;82.70;;;;;;5061212;28;20052;-67
2022/06/17 05:43:54;;;;;;;15.80;6.78;;;19.50;82.70;;;;;;5063494;28;20036;-68
2022/06/17 05:46:59;;;;;;;19.48;7.43;;;19.50;82.90;;;;;;5009326;28;20037;-68
2022/06/17 05:49:54;;;;;;;11.10;6.47;;;19.50;83.10;;;;;;5009140;28;20041;-67
2022/06/17 05:52:58;;;;;;;9.57;6.72;;;19.50;83.30;;;;;;5060024;28;20443;-67
2022/06/17 05:55:46;;;;;;;13.90;6.90;;;19.50;83.40;;;;;;5067033;28;20031;-67
2022/06/17 05:58:12;;;;;;;14.07;7.30;;;19.50;83.10;;;;;;5063094;28;20116;-68
2022/06/17 06:00:38;;;;;;;11.30;6.43;;;19.50;83.30;;;;;;5062351;28;20077;-69
2022/06/17 06:03:06;;;;;;;17.90;6.43;;;19.50;83.60;;;;;;5063599;28;20055;-67
2022/06/17 06:05:37;;;;;;;15.98;6.18;;;19.60;84.00;;;;;;5062445;28;20063;-67
2022/06/17 06:08:07;;;;;;;13.15;7.55;;;19.60;84.10;;;;;;5060570;28;20028;-66
2022/06/17 06:10:33;;;;;;;17.45;6.50;;;19.60;84.30;;;;;;5062390;28;20093;-67
2022/06/17 06:13:03;;;;;;;10.60;5.78;;;19.60;84.20;;;;;;5055985;28;20028;-66
2022/06/17 06:15:39;;;;;;;12.13;6.15;;;19.70;84.50;;;;;;5057904;28;20047;-68
2022/06/17 06:18:23;;;;;;;11.57;5.88;;;19.60;84.50;;;;;;5065019;28;20097;-68
2022/06/17 06:20:51;;;;;;;11.50;6.35;;;19.70;84.70;;;;;;5063430;28;20021;-68
2022/06/17 06:23:17;;;;;;;9.13;5.70;;;19.70;84.60;;;;;;5067817;28;20111;-66
2022/06/17 06:25:46;;;;;;;10.98;5.93;;;19.70;84.60;;;;;;5069977;28;20095;-67
2022/06/17 06:28:20;;;;;;;10.40;5.32;;;19.70;84.50;;;;;;5059770;28;20029;-67
2022/06/17 06:30:55;;;;;;;13.40;5.72;;;19.80;84.60;;;;;;5057944;28;20033;-67
2022/06/17 06:33:21;;;;;;;7.63;5.63;;;19.80;84.50;;;;;;5059094;28;20052;-67
2022/06/17 06:35:48;;;;;;;9.65;5.95;;;19.80;84.50;;;;;;5065210;28;21041;-67
2022/06/17 06:38:14;;;;;;;9.70;4.95;;;19.80;84.20;;;;;;5063431;28;20025;-67
2022/06/17 06:40:41;;;;;;;9.68;5.70;;;19.80;84.20;;;;;;5068594;28;20155;-67
2022/06/17 06:43:25;;;;;;;11.55;5.40;;;19.90;84.20;;;;;;5065020;28;20045;-67
2022/06/17 06:46:14;;;;;;;8.45;5.22;;;19.90;84.30;;;;;;5065278;28;20139;-68
2022/06/17 06:48:46;;;;;;;15.25;5.85;;;19.90;84.10;;;;;;5061316;28;20517;-68
2022/06/17 06:51:12;;;;;;;16.30;6.72;;;19.90;84.10;;;;;;5068822;28;20052;-66
2022/06/17 06:53:38;;;;;;;14.15;5.57;;;19.90;84.30;;;;;;5067405;28;20033;-66
2022/06/17 06:56:05;;;;;;;14.02;5.75;;;19.90;84.30;;;;;;5057888;28;20583;-66
2022/06/17 06:58:34;;;;;;;8.75;5.22;;;20.00;84.40;;;;;;5065770;28;20032;-66
2022/06/17 07:01:00;;;;;;;12.02;5.10;;;20.00;84.50;;;;;;5057203;28;20044;-66
2022/06/17 07:03:27;;;;;;;9.75;4.95;;;20.10;84.40;;;;;;5034257;28;1111784;-66
2022/06/17 07:05:57;;;;;;;13.73;5.43;;;20.00;84.20;;;;;;5066532;28;20078;-66
2022/06/17 07:08:25;;;;;;;10.50;4.10;;;20.10;84.00;;;;;;5066777;28;20028;-66
2022/06/17 07:10:53;;;;;;;13.93;5.88;;;20.10;83.70;;;;;;5072779;28;20051;-66
2022/06/17 07:13:21;;;;;;;14.73;5.63;;;20.20;83.70;;;;;;5071246;28;20480;-66
2022/06/17 07:15:47;;;;;;;9.80;4.88;;;20.10;83.10;;;;;;5061663;28;20040;-66
2022/06/17 07:18:17;;;;;;;9.68;5.00;;;20.20;83.60;;;;;;5071368;28;20029;-66
2022/06/17 07:20:46;;;;;;;10.30;4.97;;;20.20;83.30;;;;;;5062795;28;20033;-66
2022/06/17 07:23:25;;;;;;;8.80;4.57;;;20.20;82.70;;;;;;5069382;28;20037;-66
2022/06/17 07:25:51;;;;;;;9.60;5.22;;;20.20;82.90;;;;;;5073591;28;20032;-66
2022/06/17 07:28:22;;;;;;;8.55;4.63;;;20.20;82.80;;;;;;5064278;28;20029;-66
2022/06/17 07:30:50;;;;;;;9.80;5.05;;;20.30;83.10;;;;;;5060243;28;20113;-66
2022/06/17 07:33:18;;;;;;;7.35;4.78;;;20.40;82.60;;;;;;5072735;28;20089;-66
2022/06/17 07:35:45;;;;;;;10.40;4.70;;;20.30;81.70;;;;;;5065736;28;20039;-66
2022/06/17 07:41:09;;;;;;;8.88;4.43;;;20.30;81.50;;;;;;5039179;28;20037;-66
2022/06/17 07:43:34;;;;;;;8.98;4.65;;;20.30;81.50;;;;;;5063596;28;20040;-66
2022/06/17 07:46:01;;;;;;;11.13;5.13;;;20.30;82.00;;;;;;5055287;28;20045;-66
2022/06/17 07:48:30;;;;;;;16.83;4.15;;;20.40;82.20;;;;;;5069867;28;20036;-67
2022/06/17 07:50:59;;;;;;;8.43;4.95;;;20.40;81.90;;;;;;5061159;28;20059;-66
2022/06/17 07:53:30;;;;;;;10.52;5.07;;;20.40;81.60;;;;;;5072555;28;20021;-66
2022/06/17 07:55:58;;;;;;;12.95;5.15;;;20.50;81.70;;;;;;5070412;28;20418;-66
2022/06/17 07:58:24;;;;;;;8.93;4.22;;;20.40;81.30;;;;;;5072990;28;20029;-66
2022/06/17 08:00:50;;;;;;;12.60;5.47;;;20.40;81.30;;;;;;5071967;28;20039;-66
2022/06/17 08:03:18;;;;;;;9.98;4.38;;;20.40;81.80;;;;;;5062468;28;20501;-66
2022/06/17 08:05:47;;;;;;;8.30;4.28;;;20.50;81.70;;;;;;5067703;28;20477;-66
2022/06/17 08:08:13;;;;;;;10.82;3.42;;;20.50;81.90;;;;;;5063116;28;20039;-66
2022/06/17 08:10:39;;;;;;;12.95;4.13;;;20.50;81.50;;;;;;5058258;28;20119;-66
2022/06/17 08:13:07;;;;;;;8.10;4.43;;;20.60;81.50;;;;;;5071988;28;20094;-66
2022/06/17 08:15:34;;;;;;;5.03;3.08;;;20.60;81.80;;;;;;5071095;28;20419;-66
2022/06/17 08:18:00;;;;;;;10.23;4.90;;;20.70;81.40;;;;;;5060762;28;20032;-66
2022/06/17 08:20:32;;;;;;;7.70;4.68;;;20.60;81.70;;;;;;5068919;28;20024;-66
2022/06/17 08:22:58;;;;;;;7.57;4.22;;;20.70;82.20;;;;;;5072107;28;20032;-66
2022/06/17 08:25:24;;;;;;;9.70;3.60;;;20.80;82.00;;;;;;5064751;28;20021;-66
2022/06/17 08:27:54;;;;;;;6.80;3.72;;;20.80;81.80;;;;;;5063062;28;20506;-66
2022/06/17 08:30:24;;;;;;;7.40;3.08;;;20.80;81.90;;;;;;5071835;28;20151;-66
2022/06/17 08:32:55;;;;;;;4.30;2.95;;;20.80;81.70;;;;;;5070835;28;20028;-66
2022/06/17 08:35:31;;;;;;;9.07;3.50;;;20.90;81.50;;;;;;5069375;28;20089;-66
2022/06/17 08:38:03;;;;;;;10.25;4.13;;;21.00;81.80;;;;;;5054197;28;20033;-67
2022/06/17 08:40:39;;;;;;;10.20;4.00;;;21.10;81.80;;;;;;5067965;28;20021;-66
2022/06/17 08:43:22;;;;;;;11.60;3.90;;;21.10;81.50;;;;;;5064358;28;20040;-66
2022/06/17 08:46:21;;;;;;;6.70;3.03;;;21.20;81.40;;;;;;5063875;28;20036;-67
2022/06/17 08:49:03;;;;;;;7.93;3.58;;;21.20;81.20;;;;;;5058283;28;20028;-66
2022/06/17 08:51:58;;;;;;;11.00;4.60;;;21.30;81.70;;;;;;5065157;28;20051;-66
2022/06/17 08:54:33;;;;;;;3.20;2.13;;;21.30;81.70;;;;;;5069643;28;20044;-66
2022/06/17 08:57:17;;;;;;;10.05;4.28;;;21.30;81.50;;;;;;5064603;28;20037;-66
2022/06/17 09:00:15;;;;;;;8.18;3.75;;;21.40;82.20;;;;;;5065443;28;20021;-67
2022/06/17 09:03:18;;;;;;;9.57;4.03;;;21.40;81.60;;;;;;5070713;28;20048;-67
2022/06/17 09:06:03;;;;;;;6.57;3.38;;;21.50;81.50;;;;;;5064876;28;20064;-66
2022/06/17 09:08:56;;;;;;;8.38;3.67;;;21.60;81.80;;;;;;5070923;28;20046;-67
2022/06/17 09:11:43;;;;;;;6.27;2.10;;;21.60;81.50;;;;;;5071147;28;20059;-66
2022/06/17 09:14:51;;;;;;;6.10;3.08;;;21.60;81.40;;;;;;5064003;28;20107;-66
2022/06/17 09:17:19;;;;;;;4.22;1.63;;;21.70;81.40;;;;;;5063897;28;20078;-67
2022/06/17 09:19:48;;;;;;;8.65;3.60;;;21.70;81.40;;;;;;5070746;28;20475;-67
2022/06/17 09:22:32;;;;;;;11.25;4.20;;;21.70;81.30;;;;;;5066507;28;20021;-67
2022/06/17 09:25:06;;;;;;;8.73;3.83;;;21.70;81.50;;;;;;5061407;28;20412;-66
2022/06/17 09:27:36;;;;;;;20.15;3.63;;;21.70;81.70;;;;;;5066745;28;20448;-66
2022/06/17 09:30:34;;;;;;;7.93;3.78;;;21.80;81.90;;;;;;5071086;28;20491;-66
2022/06/17 09:33:11;;;;;;;13.90;4.40;;;21.90;81.60;;;;;;5039298;28;20450;-64
2022/06/17 09:35:58;;;;;;;6.65;1.95;;;21.90;81.60;;;;;;5068363;28;20044;-65
2022/06/17 09:38:35;;;;;;;4.50;3.15;;;22.00;81.60;;;;;;5057980;28;20127;-65
2022/06/17 09:41:20;;;;;;;8.30;3.22;;;22.00;81.70;;;;;;5057036;28;20033;-64
2022/06/17 09:43:58;;;;;;;5.78;1.92;;;22.10;81.80;;;;;;5071377;28;20086;-64
2022/06/17 09:46:42;;;;;;;5.53;2.38;;;22.10;81.70;;;;;;5056017;28;20032;-64
2022/06/17 09:49:16;;;;;;;11.02;3.30;;;22.20;81.80;;;;;;5065887;28;20032;-65
2022/06/17 09:51:54;;;;;;;12.57;4.10;;;22.20;81.80;;;;;;5061200;28;20045;-65
2022/06/17 09:54:33;;;;;;;8.32;4.13;;;22.30;82.00;;;;;;5070764;28;20911;-65
2022/06/17 09:57:08;;;;;;;2.00;1.80;;;22.30;81.50;;;;;;5072456;28;20036;-65
2022/06/17 10:00:18;;;;;;;4.57;2.60;;;22.40;81.70;;;;;;5067647;28;20028;-65
2022/06/17 10:02:58;;;;;;;5.32;3.67;;;22.40;81.50;;;;;;5064747;28;20142;-66
2022/06/17 10:05:58;;;;;;;24.58;2.08;;;22.50;81.30;;;;;;5064939;28;20040;-66
2022/06/17 10:08:42;;;;;;;3.65;2.53;;;22.60;81.60;;;;;;5069378;28;20079;-66
2022/06/17 10:11:34;;;;;;;5.32;2.28;;;22.60;81.10;;;;;;5065932;28;20405;-65
2022/06/17 10:14:12;;;;;;;7.97;3.45;;;22.60;81.10;;;;;;5073981;28;20020;-65
2022/06/17 10:20:15;;;;;;;8.10;4.40;;;22.70;81.00;;;;;;5067033;28;20025;-65
2022/06/17 10:23:06;;;;;;;5.07;2.08;;;22.60;80.80;;;;;;5066769;28;20093;-65
2022/06/17 10:25:58;;;;;;;6.88;3.60;;;22.70;80.90;;;;;;5072612;28;20045;-65
2022/06/17 10:28:39;;;;;;;8.68;3.63;;;22.70;80.70;;;;;;5063733;28;20401;-65
2022/06/17 10:31:45;;;;;;;9.02;3.10;;;22.80;80.80;;;;;;5065200;28;20037;-65
2022/06/17 10:34:22;;;;;;;11.02;4.50;;;22.80;81.00;;;;;;5027496;28;20044;-66
2022/06/17 10:36:52;;;;;;;10.20;4.50;;;22.80;81.00;;;;;;5060015;28;20128;-65
2022/06/17 10:39:20;;;;;;;12.48;3.83;;;22.90;81.70;;;;;;5064304;28;20435;-65
2022/06/17 10:41:47;;;;;;;8.55;4.40;;;22.90;81.50;;;;;;5065610;28;20020;-66
2022/06/17 10:44:18;;;;;;;6.25;4.13;;;23.00;80.80;;;;;;5069259;28;20036;-65
2022/06/17 10:47:07;;;;;;;16.63;5.28;;;23.10;81.00;;;;;;5065881;28;20063;-65
2022/06/17 10:49:47;;;;;;;18.23;4.78;;;23.10;81.00;;;;;;5063373;28;20032;-65
2022/06/17 10:52:21;;;;;;;10.00;4.05;;;23.20;81.00;;;;;;5063196;28;20103;-65
2022/06/17 10:54:49;;;;;;;13.82;4.60;;;23.20;80.80;;;;;;5069652;28;20029;-66
2022/06/17 10:57:30;;;;;;;9.45;3.60;;;23.30;81.00;;;;;;5060885;28;20496;-65
2022/06/17 10:59:57;;;;;;;4.80;1.50;;;23.30;81.10;;;;;;5068427;28;20029;-70
2022/06/17 11:02:23;;;;;;;9.98;3.03;;;23.40;81.00;;;;;;5068949;28;20170;-66
2022/06/17 11:05:01;;;;;;;5.55;3.13;;;23.40;80.40;;;;;;5066859;28;20048;-66
2022/06/17 11:07:31;;;;;;;3.65;2.20;;;23.50;80.30;;;;;;5062095;28;20032;-66
2022/06/17 11:10:03;;;;;;;19.60;3.42;;;23.50;80.10;;;;;;5071961;28;20021;-66
2022/06/17 11:12:36;;;;;;;7.07;2.95;;;23.60;79.40;;;;;;5071601;28;20036;-67
2022/06/17 11:15:05;;;;;;;5.13;3.25;;;23.60;79.80;;;;;;5071281;28;20044;-67
2022/06/17 11:17:46;;;;;;;2.10;1.85;;;23.60;79.40;;;;;;5068818;28;20033;-67
2022/06/17 11:20:24;;;;;;;10.93;3.55;;;23.70;79.80;;;;;;5066320;28;20029;-67
2022/06/17 11:22:59;;;;;;;10.43;3.22;;;23.80;79.40;;;;;;5059619;28;20468;-68
2022/06/17 11:25:37;;;;;;;4.57;2.67;;;23.80;79.30;;;;;;5066761;28;20396;-68
2022/06/17 11:28:22;;;;;;;8.02;2.90;;;23.90;80.00;;;;;;5064609;28;20021;-66
2022/06/17 11:31:05;;;;;;;7.55;2.65;;;23.90;79.80;;;;;;5070247;28;20048;-66
2022/06/17 11:33:40;;;;;;;1.33;1.10;;;24.00;79.80;;;;;;5068640;28;20082;-67
2022/06/17 11:36:21;;;;;;;8.60;3.83;;;24.10;80.00;;;;;;5069309;28;20393;-67
2022/06/17 11:38:50;;;;;;;5.43;2.05;;;24.10;78.40;;;;;;5062911;28;20036;-66
2022/06/17 11:41:35;;;;;;;6.18;2.28;;;24.20;79.10;;;;;;5055354;28;20464;-66
2022/06/17 11:44:12;;;;;;;4.70;2.40;;;24.20;79.20;;;;;;5066644;28;20037;-66
2022/06/17 11:46:58;;;;;;;8.75;2.80;;;24.30;78.90;;;;;;5070804;28;20071;-66
2022/06/17 11:49:24;;;;;;;8.38;3.22;;;24.40;78.50;;;;;;5061772;28;20032;-67
2022/06/17 11:51:52;;;;;;;3.72;1.80;;;24.40;78.30;;;;;;5056820;28;20119;-66
2022/06/17 11:54:21;;;;;;;5.57;2.03;;;24.40;78.70;;;;;;5060745;28;20607;-66
2022/06/17 11:56:48;;;;;;;7.40;3.13;;;24.50;78.50;;;;;;5070396;28;20040;-67
2022/06/17 11:59:16;;;;;;;4.03;2.10;;;24.60;77.70;;;;;;5070487;28;20111;-66
2022/06/17 12:01:48;;;;;;;6.57;3.10;;;24.60;78.30;;;;;;5065511;28;20033;-66
2022/06/17 12:04:39;;;;;;;4.35;2.50;;;24.60;77.30;;;;;;5068992;28;20403;-66
2022/06/17 12:07:30;;;;;;;6.68;3.22;;;24.70;77.70;;;;;;5065271;28;20096;-66
2022/06/17 12:10:14;;;;;;;3.15;1.58;;;24.70;77.40;;;;;;5062780;28;20060;-66
2022/06/17 12:12:41;;;;;;;4.22;2.35;;;24.80;78.00;;;;;;5070116;28;20494;-66
2022/06/17 12:15:45;;;;;;;10.25;3.55;;;24.90;78.00;;;;;;5068647;28;20033;-67
2022/06/17 12:18:22;;;;;;;6.95;3.35;;;24.90;77.40;;;;;;5036794;28;20036;-66
2022/06/17 12:21:01;;;;;;;9.30;3.58;;;25.10;77.20;;;;;;5061124;28;20025;-66
2022/06/17 12:23:37;;;;;;;8.70;3.50;;;25.10;77.00;;;;;;5062989;28;20435;-66
2022/06/17 12:26:09;;;;;;;14.23;3.83;;;25.10;77.70;;;;;;5065493;28;20074;-66
2022/06/17 12:29:01;;;;;;;10.45;3.85;;;25.20;77.20;;;;;;5065639;28;20495;-67
2022/06/17 12:31:30;;;;;;;5.57;3.00;;;25.30;77.30;;;;;;5069060;28;20047;-67
2022/06/17 12:34:05;;;;;;;13.40;3.65;;;25.40;78.40;;;;;;5063138;28;20025;-67
2022/06/17 12:36:39;;;;;;;6.00;3.03;;;25.40;77.50;;;;;;5067405;28;20033;-67
2022/06/17 12:39:23;;;;;;;9.38;4.10;;;25.50;78.10;;;;;;5066233;28;20042;-67
2022/06/17 12:42:08;;;;;;;5.43;2.28;;;25.50;77.60;;;;;;5067066;28;20476;-67
2022/06/17 12:45:10;;;;;;;12.32;3.55;;;25.60;78.20;;;;;;5068544;28;20417;-67
2022/06/17 12:48:09;;;;;;;9.65;3.00;;;25.70;77.60;;;;;;5069245;28;20024;-67
2022/06/17 12:53:27;;;;;;;6.47;2.33;;;25.90;77.10;;;;;;5064800;28;20054;-67
2022/06/17 12:56:24;;;;;;;5.43;2.22;;;25.90;76.80;;;;;;5062900;28;20051;-67
2022/06/17 12:58:52;;;;;;;5.97;3.05;;;25.90;77.40;;;;;;5062358;28;20029;-67
2022/06/17 13:01:25;;;;;;;13.45;3.40;;;26.00;76.50;;;;;;5066911;28;20059;-67
2022/06/17 13:03:51;;;;;;;;;;;26.00;76.40;;;;;;5068083;28;20049;-67
2022/06/17 13:06:37;;;;;;;3.78;2.58;;;26.10;77.20;;;;;;5068573;28;20322;-67
2022/06/17 13:09:15;;;;;;;9.00;2.90;;;26.20;77.30;;;;;;5065835;28;20040;-67
2022/06/17 13:12:07;;;;;;;8.07;3.03;;;26.30;76.70;;;;;;5066227;28;20128;-67
2022/06/17 13:14:53;;;;;;;7.93;3.13;;;26.30;76.20;;;;;;5062402;28;20366;-67
2022/06/17 13:17:45;;;;;;;9.00;3.20;;;26.30;75.80;;;;;;5069413;28;20044;-67
2022/06/17 13:20:35;;;;;;;10.00;3.30;;;26.30;76.50;;;;;;5060013;28;20094;-67
2022/06/17 13:23:13;;;;;;;6.68;2.85;;;26.40;76.80;;;;;;5065039;28;20498;-67
2022/06/17 13:25:54;;;;;;;4.20;2.40;;;26.50;76.30;;;;;;5063524;28;20047;-67
2022/06/17 13:28:49;;;;;;;13.02;2.70;;;26.50;75.10;;;;;;5060337;28;20466;-67
2022/06/17 13:31:57;;;;;;;6.13;2.95;;;26.50;75.50;;;;;;5061071;28;20080;-67